YGAH weather

Greenbah Airport
New South Wales, Australia

Public forecast

Using degrees Celsius for public forecast. Weather courtesy of forecast.io.

METAR (pilot weather report)

Closest report is Narrabri Airport, 23.4 nm (43.4 km) ESE. Retrieved 2019/06/18 02:00 UTC (9 minutes ago):

YNBR 180200Z AUTO 17004KT 090V210 9999 // BKN034 18/07 Q1019

TAF (pilot weather forecast)

Forecast is more than 12 hours old.

Closest forecast is Tamworth Airport, 92.9 nm (172.1 km) SE. Retrieved 2019/06/17 00:36 UTC (1 day ago):

TAF TAF YSTW 172242Z 1800/1818 27005KT 9999 SCT015 BKN035 FM180200 24005KT 9999 BKN040 FM181500 VRB03KT 9999 SCT040